sensor_id;sensor_type;location;lat;lon;timestamp;P1;durP1;ratioP1;P2;durP2;ratioP2
29774;SDS011;16676;51.202;6.774;2023-11-19T00:03:15;5.50;;;2.05;;
29774;SDS011;16676;51.202;6.774;2023-11-19T00:07:19;6.03;;;2.92;;
29774;SDS011;16676;51.202;6.774;2023-11-19T00:11:21;6.47;;;2.60;;
29774;SDS011;16676;51.202;6.774;2023-11-19T00:15:23;3.75;;;2.10;;
29774;SDS011;16676;51.202;6.774;2023-11-19T00:19:25;5.45;;;2.70;;
29774;SDS011;16676;51.202;6.774;2023-11-19T00:23:29;5.38;;;2.60;;
29774;SDS011;16676;51.202;6.774;2023-11-19T00:27:31;5.38;;;2.47;;
29774;SDS011;16676;51.202;6.774;2023-11-19T00:31:33;5.38;;;2.05;;
29774;SDS011;16676;51.202;6.774;2023-11-19T00:35:35;6.30;;;2.30;;
29774;SDS011;16676;51.202;6.774;2023-11-19T00:39:39;3.97;;;2.15;;
29774;SDS011;16676;51.202;6.774;2023-11-19T00:43:41;5.20;;;2.50;;
29774;SDS011;16676;51.202;6.774;2023-11-19T00:47:43;5.57;;;2.40;;
29774;SDS011;16676;51.202;6.774;2023-11-19T00:51:45;4.25;;;2.20;;
29774;SDS011;16676;51.202;6.774;2023-11-19T00:55:48;5.60;;;2.10;;
29774;SDS011;16676;51.202;6.774;2023-11-19T00:59:50;6.50;;;2.38;;
29774;SDS011;16676;51.202;6.774;2023-11-19T01:03:52;5.50;;;2.03;;
29774;SDS011;16676;51.202;6.774;2023-11-19T01:07:54;5.75;;;2.10;;
29774;SDS011;16676;51.202;6.774;2023-11-19T01:11:58;5.35;;;2.13;;
29774;SDS011;16676;51.202;6.774;2023-11-19T01:16:00;5.70;;;1.92;;
29774;SDS011;16676;51.202;6.774;2023-11-19T01:20:02;5.75;;;2.22;;
29774;SDS011;16676;51.202;6.774;2023-11-19T01:24:07;4.75;;;1.90;;
29774;SDS011;16676;51.202;6.774;2023-11-19T01:28:11;3.92;;;2.00;;
29774;SDS011;16676;51.202;6.774;2023-11-19T01:32:13;4.88;;;1.90;;
29774;SDS011;16676;51.202;6.774;2023-11-19T01:36:15;4.35;;;2.38;;
29774;SDS011;16676;51.202;6.774;2023-11-19T01:40:19;4.53;;;2.00;;
29774;SDS011;16676;51.202;6.774;2023-11-19T01:44:24;4.22;;;1.92;;
29774;SDS011;16676;51.202;6.774;2023-11-19T01:48:26;3.15;;;1.90;;
29774;SDS011;16676;51.202;6.774;2023-11-19T01:52:28;4.18;;;1.80;;
29774;SDS011;16676;51.202;6.774;2023-11-19T01:56:30;2.42;;;1.50;;
29774;SDS011;16676;51.202;6.774;2023-11-19T02:00:35;3.92;;;1.80;;
29774;SDS011;16676;51.202;6.774;2023-11-19T02:04:37;4.60;;;2.28;;
29774;SDS011;16676;51.202;6.774;2023-11-19T02:08:39;5.25;;;2.20;;
29774;SDS011;16676;51.202;6.774;2023-11-19T02:12:41;5.80;;;1.95;;
29774;SDS011;16676;51.202;6.774;2023-11-19T02:16:45;4.40;;;1.90;;
29774;SDS011;16676;51.202;6.774;2023-11-19T02:20:47;3.97;;;2.10;;
29774;SDS011;16676;51.202;6.774;2023-11-19T02:24:51;2.92;;;1.92;;
29774;SDS011;16676;51.202;6.774;2023-11-19T02:29:07;2.83;;;1.55;;
29774;SDS011;16676;51.202;6.774;2023-11-19T02:33:09;5.88;;;1.73;;
29774;SDS011;16676;51.202;6.774;2023-11-19T02:37:13;2.17;;;1.35;;
29774;SDS011;16676;51.202;6.774;2023-11-19T02:41:15;2.70;;;1.60;;
29774;SDS011;16676;51.202;6.774;2023-11-19T02:45:18;3.28;;;1.55;;
29774;SDS011;16676;51.202;6.774;2023-11-19T02:49:22;2.78;;;1.48;;
29774;SDS011;16676;51.202;6.774;2023-11-19T02:53:24;3.67;;;1.83;;
29774;SDS011;16676;51.202;6.774;2023-11-19T02:57:30;4.50;;;1.88;;
29774;SDS011;16676;51.202;6.774;2023-11-19T03:01:33;3.67;;;1.70;;
29774;SDS011;16676;51.202;6.774;2023-11-19T03:05:36;2.72;;;1.50;;
29774;SDS011;16676;51.202;6.774;2023-11-19T03:09:38;2.35;;;1.40;;
29774;SDS011;16676;51.202;6.774;2023-11-19T03:13:40;2.58;;;1.27;;
29774;SDS011;16676;51.202;6.774;2023-11-19T03:17:44;4.22;;;1.80;;
29774;SDS011;16676;51.202;6.774;2023-11-19T03:21:45;2.95;;;1.42;;
29774;SDS011;16676;51.202;6.774;2023-11-19T03:25:48;3.88;;;1.55;;
29774;SDS011;16676;51.202;6.774;2023-11-19T03:29:50;3.92;;;1.90;;
29774;SDS011;16676;51.202;6.774;2023-11-19T03:33:53;3.75;;;1.80;;
29774;SDS011;16676;51.202;6.774;2023-11-19T03:37:55;3.35;;;1.50;;
29774;SDS011;16676;51.202;6.774;2023-11-19T03:41:57;2.28;;;1.42;;
29774;SDS011;16676;51.202;6.774;2023-11-19T03:46:00;2.15;;;1.42;;
29774;SDS011;16676;51.202;6.774;2023-11-19T03:50:04;4.22;;;1.70;;
29774;SDS011;16676;51.202;6.774;2023-11-19T03:54:08;2.92;;;1.23;;
29774;SDS011;16676;51.202;6.774;2023-11-19T03:58:09;3.45;;;1.35;;
29774;SDS011;16676;51.202;6.774;2023-11-19T04:02:12;3.67;;;1.58;;
29774;SDS011;16676;51.202;6.774;2023-11-19T04:06:15;4.28;;;1.70;;
29774;SDS011;16676;51.202;6.774;2023-11-19T04:10:17;2.67;;;1.35;;
29774;SDS011;16676;51.202;6.774;2023-11-19T04:14:20;4.07;;;1.50;;
29774;SDS011;16676;51.202;6.774;2023-11-19T04:18:22;1.80;;;1.10;;
29774;SDS011;16676;51.202;6.774;2023-11-19T04:22:25;3.25;;;1.20;;
29774;SDS011;16676;51.202;6.774;2023-11-19T04:26:27;3.10;;;1.25;;
29774;SDS011;16676;51.202;6.774;2023-11-19T04:30:31;4.18;;;1.67;;
29774;SDS011;16676;51.202;6.774;2023-11-19T04:34:33;1.92;;;1.10;;
29774;SDS011;16676;51.202;6.774;2023-11-19T04:38:36;4.63;;;1.48;;
29774;SDS011;16676;51.202;6.774;2023-11-19T04:42:38;2.85;;;1.70;;
29774;SDS011;16676;51.202;6.774;2023-11-19T04:46:41;2.58;;;1.40;;
29774;SDS011;16676;51.202;6.774;2023-11-19T04:50:44;4.47;;;1.38;;
29774;SDS011;16676;51.202;6.774;2023-11-19T04:54:47;3.53;;;1.60;;
29774;SDS011;16676;51.202;6.774;2023-11-19T04:58:49;2.42;;;1.13;;
29774;SDS011;16676;51.202;6.774;2023-11-19T05:02:51;6.22;;;1.80;;
29774;SDS011;16676;51.202;6.774;2023-11-19T05:06:53;2.33;;;1.20;;
29774;SDS011;16676;51.202;6.774;2023-11-19T05:10:56;3.33;;;1.30;;
29774;SDS011;16676;51.202;6.774;2023-11-19T05:14:59;2.33;;;1.00;;
29774;SDS011;16676;51.202;6.774;2023-11-19T05:19:01;2.58;;;1.20;;
29774;SDS011;16676;51.202;6.774;2023-11-19T05:23:04;2.53;;;1.42;;
29774;SDS011;16676;51.202;6.774;2023-11-19T05:27:07;4.07;;;1.33;;
29774;SDS011;16676;51.202;6.774;2023-11-19T05:31:11;4.80;;;1.30;;
29774;SDS011;16676;51.202;6.774;2023-11-19T05:35:13;2.72;;;1.33;;
29774;SDS011;16676;51.202;6.774;2023-11-19T05:39:15;2.25;;;1.13;;
29774;SDS011;16676;51.202;6.774;2023-11-19T05:43:20;2.67;;;1.35;;
29774;SDS011;16676;51.202;6.774;2023-11-19T05:47:22;4.30;;;1.30;;
29774;SDS011;16676;51.202;6.774;2023-11-19T05:51:24;4.65;;;1.50;;
29774;SDS011;16676;51.202;6.774;2023-11-19T05:55:26;4.65;;;1.05;;
29774;SDS011;16676;51.202;6.774;2023-11-19T05:59:29;3.10;;;1.30;;
29774;SDS011;16676;51.202;6.774;2023-11-19T06:03:33;2.35;;;1.30;;
29774;SDS011;16676;51.202;6.774;2023-11-19T06:07:35;2.53;;;1.20;;
29774;SDS011;16676;51.202;6.774;2023-11-19T06:11:39;3.47;;;1.30;;
29774;SDS011;16676;51.202;6.774;2023-11-19T06:15:42;3.30;;;1.60;;
29774;SDS011;16676;51.202;6.774;2023-11-19T06:19:44;3.58;;;1.20;;
29774;SDS011;16676;51.202;6.774;2023-11-19T06:23:46;2.83;;;1.20;;
29774;SDS011;16676;51.202;6.774;2023-11-19T06:27:49;4.10;;;1.15;;
29774;SDS011;16676;51.202;6.774;2023-11-19T06:31:53;3.70;;;1.30;;
29774;SDS011;16676;51.202;6.774;2023-11-19T06:35:55;2.03;;;1.23;;
29774;SDS011;16676;51.202;6.774;2023-11-19T06:39:56;3.58;;;1.50;;
29774;SDS011;16676;51.202;6.774;2023-11-19T06:43:59;2.50;;;1.00;;
29774;SDS011;16676;51.202;6.774;2023-11-19T06:48:02;2.38;;;1.20;;
29774;SDS011;16676;51.202;6.774;2023-11-19T06:52:04;4.03;;;1.20;;
29774;SDS011;16676;51.202;6.774;2023-11-19T06:56:16;2.92;;;1.17;;
29774;SDS011;16676;51.202;6.774;2023-11-19T07:00:19;3.25;;;1.38;;
29774;SDS011;16676;51.202;6.774;2023-11-19T07:04:22;3.03;;;1.30;;
29774;SDS011;16676;51.202;6.774;2023-11-19T07:08:24;3.95;;;1.10;;
29774;SDS011;16676;51.202;6.774;2023-11-19T07:12:26;4.55;;;1.25;;
29774;SDS011;16676;51.202;6.774;2023-11-19T07:16:28;4.63;;;1.20;;
29774;SDS011;16676;51.202;6.774;2023-11-19T07:20:32;4.82;;;1.55;;
29774;SDS011;16676;51.202;6.774;2023-11-19T07:24:34;4.18;;;1.70;;
29774;SDS011;16676;51.202;6.774;2023-11-19T07:28:36;4.32;;;1.38;;
29774;SDS011;16676;51.202;6.774;2023-11-19T07:32:40;4.60;;;1.30;;
29774;SDS011;16676;51.202;6.774;2023-11-19T07:36:43;3.80;;;1.27;;
29774;SDS011;16676;51.202;6.774;2023-11-19T07:40:45;7.00;;;1.40;;
29774;SDS011;16676;51.202;6.774;2023-11-19T07:44:47;4.07;;;1.17;;
29774;SDS011;16676;51.202;6.774;2023-11-19T07:48:49;3.92;;;1.40;;
29774;SDS011;16676;51.202;6.774;2023-11-19T07:52:53;3.47;;;1.20;;
29774;SDS011;16676;51.202;6.774;2023-11-19T07:56:54;3.53;;;1.30;;
29774;SDS011;16676;51.202;6.774;2023-11-19T08:00:56;5.53;;;1.42;;
29774;SDS011;16676;51.202;6.774;2023-11-19T08:04:58;2.42;;;1.30;;
29774;SDS011;16676;51.202;6.774;2023-11-19T08:09:02;4.93;;;1.20;;
29774;SDS011;16676;51.202;6.774;2023-11-19T08:13:04;3.40;;;1.08;;
29774;SDS011;16676;51.202;6.774;2023-11-19T08:17:06;2.60;;;1.13;;
29774;SDS011;16676;51.202;6.774;2023-11-19T08:21:08;3.28;;;1.05;;
29774;SDS011;16676;51.202;6.774;2023-11-19T08:25:11;3.60;;;1.30;;
29774;SDS011;16676;51.202;6.774;2023-11-19T08:29:13;3.42;;;1.30;;
29774;SDS011;16676;51.202;6.774;2023-11-19T08:33:15;5.15;;;1.17;;
29774;SDS011;16676;51.202;6.774;2023-11-19T08:37:17;6.57;;;1.38;;
29774;SDS011;16676;51.202;6.774;2023-11-19T08:41:22;3.08;;;1.17;;
29774;SDS011;16676;51.202;6.774;2023-11-19T08:45:25;15.43;;;2.50;;
29774;SDS011;16676;51.202;6.774;2023-11-19T08:49:27;37.60;;;5.35;;
29774;SDS011;16676;51.202;6.774;2023-11-19T08:53:29;34.08;;;5.05;;
29774;SDS011;16676;51.202;6.774;2023-11-19T08:57:32;36.30;;;5.53;;
29774;SDS011;16676;51.202;6.774;2023-11-19T09:01:34;35.05;;;5.53;;
29774;SDS011;16676;51.202;6.774;2023-11-19T09:05:36;34.58;;;4.82;;
29774;SDS011;16676;51.202;6.774;2023-11-19T09:09:38;33.60;;;5.43;;
29774;SDS011;16676;51.202;6.774;2023-11-19T09:13:42;33.03;;;5.38;;
29774;SDS011;16676;51.202;6.774;2023-11-19T09:17:45;32.70;;;5.40;;
29774;SDS011;16676;51.202;6.774;2023-11-19T09:21:47;32.40;;;5.15;;
29774;SDS011;16676;51.202;6.774;2023-11-19T09:25:49;26.48;;;4.43;;
29774;SDS011;16676;51.202;6.774;2023-11-19T09:29:52;21.98;;;3.60;;
29774;SDS011;16676;51.202;6.774;2023-11-19T09:33:57;24.48;;;4.72;;
29774;SDS011;16676;51.202;6.774;2023-11-19T09:37:59;21.80;;;3.70;;
29774;SDS011;16676;51.202;6.774;2023-11-19T09:42:02;26.50;;;4.47;;
29774;SDS011;16676;51.202;6.774;2023-11-19T09:46:07;35.03;;;4.82;;
29774;SDS011;16676;51.202;6.774;2023-11-19T09:50:13;29.83;;;4.80;;
29774;SDS011;16676;51.202;6.774;2023-11-19T09:54:18;35.03;;;5.18;;
29774;SDS011;16676;51.202;6.774;2023-11-19T09:58:20;29.52;;;5.18;;
29774;SDS011;16676;51.202;6.774;2023-11-19T10:02:23;36.05;;;6.25;;
29774;SDS011;16676;51.202;6.774;2023-11-19T10:06:26;31.35;;;5.28;;
29774;SDS011;16676;51.202;6.774;2023-11-19T10:10:28;30.70;;;5.40;;
29774;SDS011;16676;51.202;6.774;2023-11-19T10:14:30;30.52;;;5.85;;
29774;SDS011;16676;51.202;6.774;2023-11-19T10:18:35;38.35;;;6.25;;
29774;SDS011;16676;51.202;6.774;2023-11-19T10:22:38;32.85;;;5.53;;
29774;SDS011;16676;51.202;6.774;2023-11-19T10:26:40;28.48;;;5.32;;
29774;SDS011;16676;51.202;6.774;2023-11-19T10:30:43;25.50;;;5.07;;
29774;SDS011;16676;51.202;6.774;2023-11-19T10:34:46;34.65;;;5.68;;
29774;SDS011;16676;51.202;6.774;2023-11-19T10:38:52;26.17;;;5.18;;
29774;SDS011;16676;51.202;6.774;2023-11-19T10:43:01;22.88;;;4.47;;
29774;SDS011;16676;51.202;6.774;2023-11-19T10:47:05;22.25;;;5.28;;
29774;SDS011;16676;51.202;6.774;2023-11-19T10:51:10;27.20;;;5.10;;
29774;SDS011;16676;51.202;6.774;2023-11-19T10:55:21;27.20;;;4.97;;
29774;SDS011;16676;51.202;6.774;2023-11-19T10:59:29;23.05;;;4.55;;
29774;SDS011;16676;51.202;6.774;2023-11-19T11:03:35;21.58;;;4.43;;
29774;SDS011;16676;51.202;6.774;2023-11-19T11:07:42;24.30;;;4.38;;
29774;SDS011;16676;51.202;6.774;2023-11-19T11:11:46;25.30;;;4.90;;
29774;SDS011;16676;51.202;6.774;2023-11-19T11:15:49;24.50;;;4.50;;
29774;SDS011;16676;51.202;6.774;2023-11-19T11:19:52;24.83;;;4.47;;
29774;SDS011;16676;51.202;6.774;2023-11-19T11:24:05;24.15;;;4.88;;
29774;SDS011;16676;51.202;6.774;2023-11-19T11:28:26;21.15;;;3.97;;
29774;SDS011;16676;51.202;6.774;2023-11-19T11:32:37;23.50;;;4.25;;
29774;SDS011;16676;51.202;6.774;2023-11-19T11:36:47;23.30;;;4.65;;
29774;SDS011;16676;51.202;6.774;2023-11-19T11:41:16;26.83;;;4.45;;
29774;SDS011;16676;51.202;6.774;2023-11-19T11:45:20;26.48;;;4.68;;
29774;SDS011;16676;51.202;6.774;2023-11-19T11:49:37;25.13;;;3.97;;
29774;SDS011;16676;51.202;6.774;2023-11-19T11:53:41;30.13;;;4.88;;
29774;SDS011;16676;51.202;6.774;2023-11-19T11:57:45;27.42;;;4.95;;
29774;SDS011;16676;51.202;6.774;2023-11-19T12:01:57;38.13;;;4.47;;
29774;SDS011;16676;51.202;6.774;2023-11-19T12:06:00;27.70;;;4.65;;
29774;SDS011;16676;51.202;6.774;2023-11-19T12:10:06;23.95;;;3.92;;
29774;SDS011;16676;51.202;6.774;2023-11-19T12:14:10;25.42;;;4.20;;
29774;SDS011;16676;51.202;6.774;2023-11-19T12:18:12;28.05;;;4.65;;
29774;SDS011;16676;51.202;6.774;2023-11-19T12:22:21;26.90;;;4.30;;
29774;SDS011;16676;51.202;6.774;2023-11-19T12:26:35;22.63;;;3.92;;
29774;SDS011;16676;51.202;6.774;2023-11-19T12:30:40;20.48;;;3.53;;
29774;SDS011;16676;51.202;6.774;2023-11-19T12:34:42;29.15;;;4.38;;
29774;SDS011;16676;51.202;6.774;2023-11-19T12:38:44;20.48;;;3.85;;
29774;SDS011;16676;51.202;6.774;2023-11-19T12:42:47;18.80;;;3.35;;
29774;SDS011;16676;51.202;6.774;2023-11-19T12:47:03;17.40;;;4.03;;
29774;SDS011;16676;51.202;6.774;2023-11-19T12:51:06;23.83;;;5.25;;
29774;SDS011;16676;51.202;6.774;2023-11-19T12:55:23;18.95;;;4.53;;
29774;SDS011;16676;51.202;6.774;2023-11-19T12:59:26;18.00;;;4.57;;
29774;SDS011;16676;51.202;6.774;2023-11-19T13:03:30;21.00;;;4.88;;
29774;SDS011;16676;51.202;6.774;2023-11-19T13:07:33;15.10;;;4.53;;
29774;SDS011;16676;51.202;6.774;2023-11-19T13:11:35;31.52;;;12.82;;
29774;SDS011;16676;51.202;6.774;2023-11-19T13:15:39;26.48;;;11.27;;
29774;SDS011;16676;51.202;6.774;2023-11-19T13:19:42;28.33;;;9.77;;
29774;SDS011;16676;51.202;6.774;2023-11-19T13:23:44;29.85;;;9.52;;
29774;SDS011;16676;51.202;6.774;2023-11-19T13:27:46;22.50;;;7.32;;
29774;SDS011;16676;51.202;6.774;2023-11-19T13:31:48;23.30;;;6.93;;
29774;SDS011;16676;51.202;6.774;2023-11-19T13:35:52;25.25;;;7.57;;
29774;SDS011;16676;51.202;6.774;2023-11-19T13:39:54;21.48;;;7.50;;
29774;SDS011;16676;51.202;6.774;2023-11-19T13:43:56;21.13;;;6.35;;
29774;SDS011;16676;51.202;6.774;2023-11-19T13:47:59;18.90;;;7.00;;
29774;SDS011;16676;51.202;6.774;2023-11-19T13:52:02;19.15;;;6.78;;
29774;SDS011;16676;51.202;6.774;2023-11-19T13:56:05;21.00;;;7.05;;
29774;SDS011;16676;51.202;6.774;2023-11-19T14:00:08;17.85;;;6.30;;
29774;SDS011;16676;51.202;6.774;2023-11-19T14:04:13;25.00;;;6.88;;
29774;SDS011;16676;51.202;6.774;2023-11-19T14:08:16;17.63;;;6.63;;
29774;SDS011;16676;51.202;6.774;2023-11-19T14:12:18;18.70;;;6.72;;
29774;SDS011;16676;51.202;6.774;2023-11-19T14:16:20;19.48;;;5.88;;
29774;SDS011;16676;51.202;6.774;2023-11-19T14:20:22;16.05;;;5.38;;
29774;SDS011;16676;51.202;6.774;2023-11-19T14:24:26;19.55;;;6.55;;
29774;SDS011;16676;51.202;6.774;2023-11-19T14:28:28;16.20;;;5.50;;
29774;SDS011;16676;51.202;6.774;2023-11-19T14:32:31;16.50;;;5.85;;
29774;SDS011;16676;51.202;6.774;2023-11-19T14:36:33;20.25;;;5.13;;
29774;SDS011;16676;51.202;6.774;2023-11-19T14:40:37;16.95;;;5.32;;
29774;SDS011;16676;51.202;6.774;2023-11-19T14:44:39;15.77;;;5.05;;
29774;SDS011;16676;51.202;6.774;2023-11-19T14:48:41;15.20;;;5.57;;
29774;SDS011;16676;51.202;6.774;2023-11-19T14:52:43;14.98;;;5.15;;
29774;SDS011;16676;51.202;6.774;2023-11-19T14:56:46;14.80;;;5.07;;
29774;SDS011;16676;51.202;6.774;2023-11-19T15:00:48;18.80;;;5.60;;
29774;SDS011;16676;51.202;6.774;2023-11-19T15:04:50;19.60;;;5.65;;
29774;SDS011;16676;51.202;6.774;2023-11-19T15:08:52;17.83;;;5.80;;
29774;SDS011;16676;51.202;6.774;2023-11-19T15:12:56;15.27;;;4.95;;
29774;SDS011;16676;51.202;6.774;2023-11-19T15:16:58;12.30;;;4.75;;
29774;SDS011;16676;51.202;6.774;2023-11-19T15:21:01;12.07;;;4.60;;
29774;SDS011;16676;51.202;6.774;2023-11-19T15:25:03;17.63;;;5.47;;
29774;SDS011;16676;51.202;6.774;2023-11-19T15:29:11;12.87;;;5.03;;
29774;SDS011;16676;51.202;6.774;2023-11-19T15:33:14;12.82;;;4.78;;
29774;SDS011;16676;51.202;6.774;2023-11-19T15:37:16;11.02;;;4.80;;
29774;SDS011;16676;51.202;6.774;2023-11-19T15:41:18;12.68;;;4.90;;
29774;SDS011;16676;51.202;6.774;2023-11-19T15:45:21;15.65;;;4.63;;
29774;SDS011;16676;51.202;6.774;2023-11-19T15:49:23;12.52;;;4.65;;
29774;SDS011;16676;51.202;6.774;2023-11-19T15:53:25;9.27;;;4.15;;
29774;SDS011;16676;51.202;6.774;2023-11-19T15:57:27;14.15;;;4.70;;
29774;SDS011;16676;51.202;6.774;2023-11-19T16:01:31;11.68;;;4.18;;
29774;SDS011;16676;51.202;6.774;2023-11-19T16:05:33;15.43;;;4.65;;
29774;SDS011;16676;51.202;6.774;2023-11-19T16:09:35;13.68;;;4.43;;
29774;SDS011;16676;51.202;6.774;2023-11-19T16:13:38;18.00;;;4.60;;
29774;SDS011;16676;51.202;6.774;2023-11-19T16:17:41;15.02;;;4.75;;
29774;SDS011;16676;51.202;6.774;2023-11-19T16:21:43;13.05;;;4.32;;
29774;SDS011;16676;51.202;6.774;2023-11-19T16:25:45;17.08;;;4.80;;
29774;SDS011;16676;51.202;6.774;2023-11-19T16:29:48;16.38;;;4.72;;
29774;SDS011;16676;51.202;6.774;2023-11-19T16:33:51;10.45;;;4.20;;
29774;SDS011;16676;51.202;6.774;2023-11-19T16:37:53;10.50;;;3.85;;
29774;SDS011;16676;51.202;6.774;2023-11-19T16:41:56;11.95;;;3.88;;
29774;SDS011;16676;51.202;6.774;2023-11-19T16:45:58;11.73;;;4.20;;
29774;SDS011;16676;51.202;6.774;2023-11-19T16:50:02;13.35;;;3.95;;
29774;SDS011;16676;51.202;6.774;2023-11-19T16:54:04;11.27;;;3.63;;
29774;SDS011;16676;51.202;6.774;2023-11-19T16:58:07;10.77;;;4.22;;
29774;SDS011;16676;51.202;6.774;2023-11-19T17:02:10;9.70;;;4.03;;
29774;SDS011;16676;51.202;6.774;2023-11-19T17:06:13;12.40;;;4.00;;
29774;SDS011;16676;51.202;6.774;2023-11-19T17:10:15;10.93;;;3.30;;
29774;SDS011;16676;51.202;6.774;2023-11-19T17:14:18;13.30;;;4.43;;
29774;SDS011;16676;51.202;6.774;2023-11-19T17:18:21;14.05;;;4.28;;
29774;SDS011;16676;51.202;6.774;2023-11-19T17:22:24;17.27;;;4.68;;
29774;SDS011;16676;51.202;6.774;2023-11-19T17:26:26;19.38;;;4.43;;
29774;SDS011;16676;51.202;6.774;2023-11-19T17:30:28;12.27;;;3.72;;
29774;SDS011;16676;51.202;6.774;2023-11-19T17:34:30;16.63;;;4.50;;
29774;SDS011;16676;51.202;6.774;2023-11-19T17:38:33;17.58;;;4.97;;
29774;SDS011;16676;51.202;6.774;2023-11-19T17:42:35;24.48;;;6.70;;
29774;SDS011;16676;51.202;6.774;2023-11-19T17:46:37;28.73;;;6.50;;
29774;SDS011;16676;51.202;6.774;2023-11-19T17:50:39;34.63;;;7.60;;
29774;SDS011;16676;51.202;6.774;2023-11-19T17:54:42;33.70;;;7.90;;
29774;SDS011;16676;51.202;6.774;2023-11-19T17:58:44;60.13;;;13.05;;
29774;SDS011;16676;51.202;6.774;2023-11-19T18:02:47;52.92;;;12.02;;
29774;SDS011;16676;51.202;6.774;2023-11-19T18:06:51;52.70;;;12.80;;
29774;SDS011;16676;51.202;6.774;2023-11-19T18:10:55;54.10;;;13.75;;
29774;SDS011;16676;51.202;6.774;2023-11-19T18:14:57;54.78;;;13.13;;
29774;SDS011;16676;51.202;6.774;2023-11-19T18:18:59;53.53;;;14.15;;
29774;SDS011;16676;51.202;6.774;2023-11-19T18:23:01;57.45;;;14.95;;
29774;SDS011;16676;51.202;6.774;2023-11-19T18:27:05;58.17;;;13.77;;
29774;SDS011;16676;51.202;6.774;2023-11-19T18:31:07;43.65;;;13.02;;
29774;SDS011;16676;51.202;6.774;2023-11-19T18:35:09;49.13;;;12.93;;
29774;SDS011;16676;51.202;6.774;2023-11-19T18:39:12;46.75;;;12.18;;
29774;SDS011;16676;51.202;6.774;2023-11-19T18:43:15;44.00;;;12.52;;
29774;SDS011;16676;51.202;6.774;2023-11-19T18:47:19;45.70;;;12.10;;
29774;SDS011;16676;51.202;6.774;2023-11-19T18:51:21;46.80;;;12.43;;
29774;SDS011;16676;51.202;6.774;2023-11-19T18:55:23;38.42;;;10.00;;
29774;SDS011;16676;51.202;6.774;2023-11-19T18:59:27;42.10;;;11.43;;
29774;SDS011;16676;51.202;6.774;2023-11-19T19:03:28;44.42;;;10.23;;
29774;SDS011;16676;51.202;6.774;2023-11-19T19:07:31;38.38;;;10.30;;
29774;SDS011;16676;51.202;6.774;2023-11-19T19:11:33;41.20;;;10.00;;
29774;SDS011;16676;51.202;6.774;2023-11-19T19:15:37;26.40;;;8.82;;
29774;SDS011;16676;51.202;6.774;2023-11-19T19:19:39;29.48;;;8.82;;
29774;SDS011;16676;51.202;6.774;2023-11-19T19:23:41;32.85;;;9.43;;
29774;SDS011;16676;51.202;6.774;2023-11-19T19:27:43;26.60;;;7.80;;
29774;SDS011;16676;51.202;6.774;2023-11-19T19:31:47;30.42;;;8.23;;
29774;SDS011;16676;51.202;6.774;2023-11-19T19:35:49;27.48;;;7.38;;
29774;SDS011;16676;51.202;6.774;2023-11-19T19:39:51;26.20;;;7.75;;
29774;SDS011;16676;51.202;6.774;2023-11-19T19:43:53;26.48;;;7.60;;
29774;SDS011;16676;51.202;6.774;2023-11-19T19:47:57;26.70;;;7.20;;
29774;SDS011;16676;51.202;6.774;2023-11-19T19:51:59;19.83;;;6.88;;
29774;SDS011;16676;51.202;6.774;2023-11-19T19:56:01;17.05;;;6.22;;
29774;SDS011;16676;51.202;6.774;2023-11-19T20:00:03;21.63;;;6.95;;
29774;SDS011;16676;51.202;6.774;2023-11-19T20:04:10;20.88;;;6.45;;
29774;SDS011;16676;51.202;6.774;2023-11-19T20:08:12;19.88;;;7.00;;
29774;SDS011;16676;51.202;6.774;2023-11-19T20:12:14;22.15;;;5.82;;
29774;SDS011;16676;51.202;6.774;2023-11-19T20:16:16;17.75;;;6.00;;
29774;SDS011;16676;51.202;6.774;2023-11-19T20:20:20;16.42;;;5.32;;
29774;SDS011;16676;51.202;6.774;2023-11-19T20:24:22;21.30;;;5.85;;
29774;SDS011;16676;51.202;6.774;2023-11-19T20:28:24;18.90;;;6.05;;
29774;SDS011;16676;51.202;6.774;2023-11-19T20:32:26;21.05;;;6.90;;
29774;SDS011;16676;51.202;6.774;2023-11-19T20:36:29;21.05;;;6.18;;
29774;SDS011;16676;51.202;6.774;2023-11-19T20:40:31;16.25;;;5.45;;
29774;SDS011;16676;51.202;6.774;2023-11-19T20:44:33;15.95;;;5.20;;
29774;SDS011;16676;51.202;6.774;2023-11-19T20:48:35;20.60;;;5.60;;
29774;SDS011;16676;51.202;6.774;2023-11-19T20:52:38;19.98;;;5.55;;
29774;SDS011;16676;51.202;6.774;2023-11-19T20:56:41;19.85;;;5.60;;
29774;SDS011;16676;51.202;6.774;2023-11-19T21:00:43;20.10;;;5.43;;
29774;SDS011;16676;51.202;6.774;2023-11-19T21:04:46;17.38;;;5.15;;
29774;SDS011;16676;51.202;6.774;2023-11-19T21:08:49;16.27;;;4.57;;
29774;SDS011;16676;51.202;6.774;2023-11-19T21:12:52;18.40;;;5.15;;
29774;SDS011;16676;51.202;6.774;2023-11-19T21:16:54;15.88;;;4.65;;
29774;SDS011;16676;51.202;6.774;2023-11-19T21:20:56;12.75;;;4.20;;
29774;SDS011;16676;51.202;6.774;2023-11-19T21:24:59;17.13;;;4.55;;
29774;SDS011;16676;51.202;6.774;2023-11-19T21:29:01;15.55;;;4.10;;
29774;SDS011;16676;51.202;6.774;2023-11-19T21:33:03;18.05;;;4.93;;
29774;SDS011;16676;51.202;6.774;2023-11-19T21:37:05;15.48;;;4.63;;
29774;SDS011;16676;51.202;6.774;2023-11-19T21:41:10;14.63;;;4.18;;
29774;SDS011;16676;51.202;6.774;2023-11-19T21:45:14;16.42;;;4.38;;
29774;SDS011;16676;51.202;6.774;2023-11-19T21:49:16;15.90;;;4.22;;
29774;SDS011;16676;51.202;6.774;2023-11-19T21:53:18;13.90;;;4.30;;
29774;SDS011;16676;51.202;6.774;2023-11-19T21:57:21;14.90;;;4.45;;
29774;SDS011;16676;51.202;6.774;2023-11-19T22:01:23;11.80;;;3.80;;
29774;SDS011;16676;51.202;6.774;2023-11-19T22:05:25;11.95;;;3.80;;
29774;SDS011;16676;51.202;6.774;2023-11-19T22:09:27;11.20;;;3.78;;
29774;SDS011;16676;51.202;6.774;2023-11-19T22:13:30;9.00;;;2.92;;
29774;SDS011;16676;51.202;6.774;2023-11-19T22:17:35;13.35;;;3.58;;
29774;SDS011;16676;51.202;6.774;2023-11-19T22:21:37;11.68;;;3.97;;
29774;SDS011;16676;51.202;6.774;2023-11-19T22:25:40;9.70;;;3.80;;
29774;SDS011;16676;51.202;6.774;2023-11-19T22:29:45;10.20;;;3.22;;
29774;SDS011;16676;51.202;6.774;2023-11-19T22:33:47;11.82;;;3.85;;
29774;SDS011;16676;51.202;6.774;2023-11-19T22:37:50;9.57;;;3.55;;
29774;SDS011;16676;51.202;6.774;2023-11-19T22:41:52;8.48;;;3.13;;
29774;SDS011;16676;51.202;6.774;2023-11-19T22:45:55;8.18;;;3.10;;
29774;SDS011;16676;51.202;6.774;2023-11-19T22:49:57;9.70;;;3.10;;
29774;SDS011;16676;51.202;6.774;2023-11-19T22:53:59;9.68;;;3.42;;
29774;SDS011;16676;51.202;6.774;2023-11-19T22:58:01;12.38;;;3.40;;
29774;SDS011;16676;51.202;6.774;2023-11-19T23:02:05;9.35;;;3.22;;
29774;SDS011;16676;51.202;6.774;2023-11-19T23:06:07;8.82;;;3.13;;
29774;SDS011;16676;51.202;6.774;2023-11-19T23:10:09;11.55;;;3.70;;
29774;SDS011;16676;51.202;6.774;2023-11-19T23:14:11;9.48;;;2.97;;
29774;SDS011;16676;51.202;6.774;2023-11-19T23:18:16;9.13;;;3.13;;
29774;SDS011;16676;51.202;6.774;2023-11-19T23:22:18;7.57;;;2.90;;
29774;SDS011;16676;51.202;6.774;2023-11-19T23:26:20;11.50;;;3.10;;
29774;SDS011;16676;51.202;6.774;2023-11-19T23:30:22;11.85;;;3.42;;
29774;SDS011;16676;51.202;6.774;2023-11-19T23:34:25;11.57;;;3.17;;
29774;SDS011;16676;51.202;6.774;2023-11-19T23:38:27;8.40;;;3.20;;
29774;SDS011;16676;51.202;6.774;2023-11-19T23:42:29;10.80;;;3.03;;
29774;SDS011;16676;51.202;6.774;2023-11-19T23:46:32;7.75;;;2.92;;
29774;SDS011;16676;51.202;6.774;2023-11-19T23:50:36;9.10;;;2.92;;
29774;SDS011;16676;51.202;6.774;2023-11-19T23:54:38;8.15;;;2.92;;
29774;SDS011;16676;51.202;6.774;2023-11-19T23:58:40;10.68;;;3.30;;
